Arbúcies





Hora UTC 06:30
Temperatura 22.7 ºC
Humedad 62.5 %
Presión 1024.0 hPa
Pluja 0.0 mm
Velocidad viento 5.7 km/h
Dirección viento SW
Radiación solar 297.2 W/m²

Datos diarios 2022-07-07



Hora UTC (invierno +1h; verano +2h)
Temperatura (ºC) Humedad (%) Presión (hPa) Velocidad viento (km/h) Precipitación (mm) Radiación solar (W/m²)
Hora UTC Aire Humedad Presión Vel. Dir. Vel. Max Dir. Intent. máx 5 min. Rad. Sol.
00:05 18.2 87.6 1024.0 9.2 SSW 11.6 SSW 0.0 0.0
00:10 18.1 87.5 1024.0 9.3 SSW 12.7 SW 0.0 0.0
00:15 18.2 86.2 1024.0 9.8 SSW 14.1 SW 0.0 0.3
00:20 18.3 85.1 1024.0 8.3 SSW 11.3 SSW 0.0 0.0
00:25 18.1 84.9 1024.0 9.2 SSW 12.7 SSW 0.0 0.1
00:30 18.3 83.4 1024.0 7.4 SW 11.6 SSW 0.0 0.2
00:35 17.9 84.8 1024.0 7.4 SW 9.9 SSW 0.0 0.0
00:40 17.7 86.1 1024.0 8.9 SSW 12.0 SSW 0.0 0.1
00:45 17.6 86.7 1024.0 8.2 SW 9.9 SW 0.0 0.0
00:50 17.4 86.8 1024.0 7.6 SW 11.3 SW 0.0 0.3
00:55 17.6 86.1 1024.0 7.1 SW 9.9 SW 0.0 0.7
01:00 17.8 84.3 1024.0 7.3 SSW 13.4 SSW 0.0 0.9
01:05 18.3 80.1 1024.0 8.2 SW 12.3 SSW 0.0 1.2
01:10 18.4 78.9 1024.0 7.8 SW 13.8 SW 0.0 0.3
01:15 18.3 78.6 1024.0 8.1 SW 13.4 SSW 0.0 0.1
01:20 18.1 80.0 1024.0 7.3 SW 10.9 SW 0.0 0.0
01:25 17.9 82.3 1024.0 7.6 SSW 10.6 SW 0.0 0.0
01:30 17.7 84.2 1024.0 7.5 SW 9.5 SW 0.0 0.0
01:35 17.5 85.6 1024.0 7.9 SW 10.6 SW 0.0 0.0
01:40 17.5 86.2 1024.0 7.1 SW 8.8 SW 0.0 0.0
01:45 17.3 86.4 1024.0 5.3 SW 7.4 SW 0.0 0.0
01:50 17.1 86.8 1024.0 5.8 SW 7.8 SW 0.0 0.0
01:55 17.1 87.2 1024.0 6.7 SW 9.2 SSW 0.0 0.4
02:00 17.7 86.2 1024.0 7.7 SW 14.1 SW 0.0 1.3
02:05 18.6 80.3 1024.0 6.4 SW 10.9 SW 0.0 1.2
02:10 18.5 79.9 1024.0 5.5 SW 10.2 SW 0.0 0.0
02:15 18.6 80.6 1024.0 5.8 SW 11.3 SW 0.0 0.3
02:20 19.1 78.4 1024.0 7.4 SW 13.4 SW 0.0 0.7
02:25 19.6 75.5 1023.0 6.5 SW 12.3 SW 0.0 0.1
02:30 19.7 75.4 1023.0 7.7 SW 15.9 SSW 0.0 0.0
02:35 20.0 74.5 1023.0 8.2 SW 17.3 SW 0.0 0.0
02:40 20.1 73.7 1024.0 10.0 SW 24.3 WSW 0.0 0.0
02:45 20.1 73.4 1023.0 11.1 SW 23.3 SW 0.0 0.0
02:50 20.1 73.3 1024.0 11.0 SSW 21.5 SW 0.0 0.0
02:55 20.1 73.1 1024.0 10.8 SSW 22.6 SSW 0.0 0.0
03:00 20.1 73.1 1023.0 11.5 SSW 19.1 SW 0.0 0.0
03:05 20.1 73.4 1024.0 9.2 SW 18.7 SW 0.0 0.0
03:10 20.0 73.5 1023.0 8.1 SW 17.6 SW 0.0 0.0
03:15 19.9 73.9 1023.0 7.6 SSW 12.3 SW 0.0 0.0
03:20 19.8 73.9 1024.0 6.8 SW 12.0 SSW 0.0 0.0
03:25 19.8 73.8 1024.0 5.3 SW 11.3 SSW 0.0 0.0
03:30 19.5 74.2 1024.0 4.3 SW 8.5 SW 0.0 0.0
03:35 19.5 74.1 1023.0 4.8 SW 7.8 SSW 0.0 0.0
03:40 19.3 74.4 1023.0 3.1 WSW 7.1 SW 0.0 0.0
03:45 19.0 77.4 1023.0 3.8 WSW 5.6 SW 0.0 0.0
03:50 18.4 79.2 1024.0 4.8 SW 6.7 SW 0.0 0.0
03:55 18.0 80.4 1023.0 4.3 SW 6.0 SW 0.0 0.0
04:00 17.8 81.5 1024.0 4.2 SW 6.7 WSW 0.0 0.0
04:05 17.6 82.3 1024.0 0.3 SSW 4.6 SSW 0.0 0.0
04:10 17.5 82.6 1024.0 4.3 SW 7.8 W 0.0 0.0
04:15 17.5 82.4 1023.0 4.5 SW 6.4 WSW 0.0 0.0
04:20 17.5 82.9 1024.0 6.0 SW 9.9 SW 0.0 1.0
04:25 17.5 83.0 1023.0 6.8 SW 9.9 SW 0.0 1.9
04:30 17.3 84.3 1023.0 7.1 SW 11.3 SW 0.0 2.9
04:35 17.2 85.6 1023.0 6.6 SW 9.2 SSW 0.0 4.4
04:40 17.2 86.1 1024.0 6.5 SW 8.1 SSW 0.0 6.7
04:45 17.2 86.1 1023.0 5.4 SW 7.4 SW 0.0 9.0
04:50 17.1 86.3 1024.0 4.0 SW 7.1 SW 0.0 11.9
04:55 17.0 86.8 1024.0 4.6 SW 7.1 WSW 0.0 16.4
05:00 17.0 87.3 1024.0 5.9 SW 10.2 WSW 0.0 22.9
05:05 17.3 87.5 1024.0 5.1 SW 7.4 SW 0.0 28.5
05:10 17.4 87.1 1024.0 6.0 SW 7.4 SW 0.0 30.4
05:15 17.5 87.0 1024.0 5.9 SW 8.1 W 0.0 39.0
05:20 17.7 86.1 1024.0 4.2 SW 6.4 SSW 0.0 47.4
05:25 17.8 85.8 1024.0 5.2 SW 7.8 SW 0.0 51.8
05:30 17.9 86.1 1024.0 7.2 SW 12.7 WSW 0.0 55.2
05:35 18.4 84.6 1024.0 7.7 SW 13.1 WSW 0.0 61.5
05:40 18.8 81.3 1024.0 5.2 SW 9.5 WSW 0.0 75.3
05:45 18.8 81.1 1024.0 4.4 SW 7.8 SW 0.0 112.6
05:50 19.0 82.0 1024.0 4.2 SW 9.9 SW 0.0 178.8
05:55 20.0 76.5 1024.0 6.8 SW 10.2 SW 0.0 201.1
06:00 20.7 72.4 1023.0 5.5 SW 10.6 WSW 0.0 204.1
06:05 21.1 70.6 1024.0 6.2 SW 10.6 SSW 0.0 186.1
06:10 21.3 68.8 1024.0 5.2 WSW 8.8 WSW 0.0 222.8
06:15 21.7 67.4 1024.0 4.8 SW 10.6 SW 0.0 260.8
06:20 22.0 67.2 1024.0 2.3 WSW 4.6 W 0.0 268.8
06:25 22.4 65.1 1024.0 5.7 SW 10.9 SSW 0.0 281.4
06:30 22.7 62.5 1024.0 5.7 SW 12.0 SW 0.0 297.2
Máxima 22.7 87.6 1024.0 11.5 SSW 24.3 WSW 0.0 297.2
Mínima 17.0 62.5 1023.0
Total 0.0